createdAt,value
2022-10-05T00:00:17.980Z,80.33
2022-10-05T00:02:46.464Z,80.35
2022-10-05T00:05:15.953Z,80.34
2022-10-05T00:07:42.532Z,80.40
2022-10-05T00:10:14.596Z,80.02
2022-10-05T00:12:40.956Z,80.24
2022-10-05T00:15:12.182Z,80.03
2022-10-05T00:17:38.861Z,80.05
2022-10-05T00:20:37.812Z,80.05
2022-10-05T00:23:05.096Z,79.79
2022-10-05T00:25:31.498Z,80.17
2022-10-05T00:28:00.278Z,80.09
2022-10-05T00:30:32.927Z,80.12
2022-10-05T00:32:59.992Z,80.12
2022-10-05T00:35:29.118Z,80.15
2022-10-05T00:37:56.017Z,80.14
2022-10-05T00:40:37.542Z,80.34
2022-10-05T00:43:25.665Z,80.37
2022-10-05T00:46:07.568Z,80.59
2022-10-05T00:48:49.584Z,80.41
2022-10-05T00:51:28.585Z,80.74
2022-10-05T00:54:17.487Z,80.34
2022-10-05T00:56:56.492Z,80.60
2022-10-05T00:59:40.559Z,80.69
2022-10-05T01:02:34.371Z,80.87
2022-10-05T01:05:12.732Z,80.90
2022-10-05T01:07:48.098Z,80.97
2022-10-05T01:10:30.592Z,80.95
2022-10-05T01:13:11.606Z,81.35
2022-10-05T01:15:58.699Z,81.63
2022-10-05T01:18:57.346Z,81.68
2022-10-05T01:21:26.826Z,81.53
2022-10-05T01:24:25.061Z,81.80
2022-10-05T01:27:10.209Z,82.02
2022-10-05T01:29:52.275Z,81.73
2022-10-05T01:32:52.910Z,82.16
2022-10-05T01:35:43.159Z,81.94
2022-10-05T01:38:18.461Z,82.20
2022-10-05T01:40:51.557Z,82.38
2022-10-05T01:43:27.826Z,82.39
2022-10-05T01:46:18.871Z,82.53
2022-10-05T01:48:58.329Z,82.51
2022-10-05T01:51:30.680Z,82.88
2022-10-05T01:54:15.211Z,82.64
2022-10-05T01:56:52.970Z,82.88
2022-10-05T01:59:43.909Z,82.88
2022-10-05T02:02:16.534Z,83.04
2022-10-05T02:05:04.158Z,83.11
2022-10-05T02:07:45.821Z,83.29
2022-10-05T02:10:30.911Z,83.29
2022-10-05T02:13:25.070Z,83.52
2022-10-05T02:16:01.247Z,83.59
2022-10-05T02:18:33.596Z,83.78
2022-10-05T02:21:01.861Z,83.79
2022-10-05T02:23:37.807Z,83.74
2022-10-05T02:26:06.430Z,83.85
2022-10-05T02:28:35.955Z,84.05
2022-10-05T02:31:11.764Z,83.94
2022-10-05T02:33:38.582Z,84.38
2022-10-05T02:36:16.075Z,84.17
2022-10-05T02:38:59.287Z,84.40
2022-10-05T02:41:34.907Z,84.17
2022-10-05T02:44:20.235Z,84.89
2022-10-05T02:47:06.876Z,84.95
2022-10-05T02:49:46.369Z,85.09
2022-10-05T02:52:28.128Z,84.94
2022-10-05T02:55:03.218Z,84.93
2022-10-05T02:57:40.058Z,85.00
2022-10-05T03:00:20.932Z,84.91
2022-10-05T03:03:06.189Z,84.99
2022-10-05T03:05:44.167Z,85.00
2022-10-05T03:08:35.809Z,84.98
2022-10-05T03:11:25.309Z,84.90
2022-10-05T03:14:18.721Z,84.94
2022-10-05T03:16:55.092Z,84.77
2022-10-05T03:19:40.386Z,84.65
2022-10-05T03:22:38.439Z,84.52
2022-10-05T03:25:32.295Z,84.57
2022-10-05T03:28:14.465Z,84.43
2022-10-05T03:31:17.923Z,84.17
2022-10-05T03:33:55.063Z,83.97
2022-10-05T03:36:25.109Z,83.87
2022-10-05T03:39:25.791Z,83.68
2022-10-05T03:41:58.340Z,84.21
2022-10-05T03:45:01.915Z,83.42
2022-10-05T03:47:50.644Z,83.45
2022-10-05T03:50:37.403Z,83.27
2022-10-05T03:53:18.236Z,83.21
2022-10-05T03:55:54.053Z,83.14
2022-10-05T03:58:27.358Z,82.83
2022-10-05T04:00:59.090Z,82.63
2022-10-05T04:03:40.398Z,82.52
2022-10-05T04:06:17.751Z,82.41
2022-10-05T04:08:51.929Z,82.21
2022-10-05T04:11:29.425Z,82.05
2022-10-05T04:14:09.118Z,82.15
2022-10-05T04:16:41.830Z,81.88
2022-10-05T04:19:31.889Z,81.91
2022-10-05T04:22:25.342Z,81.98
2022-10-05T04:24:56.213Z,81.88
2022-10-05T04:27:29.269Z,81.63
2022-10-05T04:30:12.407Z,81.71
2022-10-05T04:32:42.562Z,81.60
2022-10-05T04:35:46.584Z,81.51
2022-10-05T04:38:27.956Z,81.50
2022-10-05T04:41:39.485Z,81.55
2022-10-05T04:44:43.379Z,81.12
2022-10-05T04:47:24.894Z,80.96
2022-10-05T04:50:16.085Z,81.06
2022-10-05T04:53:03.426Z,81.03
2022-10-05T04:55:53.103Z,80.98
2022-10-05T04:58:45.292Z,80.79
2022-10-05T05:01:30.905Z,80.74
2022-10-05T05:04:20.483Z,80.52
2022-10-05T05:07:00.981Z,80.59
2022-10-05T05:09:42.596Z,80.14
2022-10-05T05:12:20.125Z,80.12
2022-10-05T05:15:11.203Z,80.04
2022-10-05T05:17:50.528Z,79.76
2022-10-05T05:20:36.777Z,79.71
2022-10-05T05:23:33.853Z,79.68
2022-10-05T05:26:36.829Z,79.48
2022-10-05T05:29:23.714Z,79.68
2022-10-05T05:31:55.821Z,79.40
2022-10-05T05:34:46.844Z,79.79
2022-10-05T05:37:19.625Z,79.82
2022-10-05T05:40:06.128Z,79.98
2022-10-05T05:42:42.179Z,80.15
2022-10-05T05:45:17.760Z,80.27
2022-10-05T05:47:52.038Z,80.40
2022-10-05T05:50:30.282Z,80.53
2022-10-05T05:53:20.593Z,80.42
2022-10-05T05:56:12.898Z,80.76
2022-10-05T05:58:47.842Z,80.99
2022-10-05T06:01:35.502Z,81.23
2022-10-05T06:04:09.022Z,81.29
2022-10-05T06:06:42.255Z,81.37
2022-10-05T06:09:22.773Z,81.44
2022-10-05T06:12:19.980Z,81.41
2022-10-05T06:14:56.604Z,81.51
2022-10-05T06:17:31.751Z,81.50
2022-10-05T06:20:05.221Z,81.60
2022-10-05T06:22:41.277Z,81.44
2022-10-05T06:25:13.581Z,81.37
2022-10-05T06:28:11.774Z,81.27
2022-10-05T06:30:51.594Z,81.28
2022-10-05T06:33:28.694Z,81.18
2022-10-05T06:36:17.505Z,81.39
2022-10-05T06:39:07.905Z,81.34
2022-10-05T06:41:48.480Z,81.42
2022-10-05T06:44:26.021Z,81.48
2022-10-05T06:47:14.772Z,81.26
2022-10-05T06:50:07.319Z,81.29
2022-10-05T06:52:36.566Z,81.44
2022-10-05T06:55:54.693Z,81.22
2022-10-05T06:58:42.561Z,81.35
2022-10-05T07:01:23.472Z,81.42
2022-10-05T07:04:15.640Z,81.36
2022-10-05T07:06:51.485Z,81.16
2022-10-05T07:09:53.192Z,80.94
2022-10-05T07:12:34.313Z,81.13
2022-10-05T07:15:16.501Z,80.76
2022-10-05T07:18:18.512Z,80.99
2022-10-05T07:20:59.909Z,80.72
2022-10-05T07:24:05.444Z,80.76
2022-10-05T07:26:36.725Z,80.65
2022-10-05T07:29:19.204Z,80.59
2022-10-05T07:31:55.605Z,80.82
2022-10-05T07:34:38.986Z,80.58
2022-10-05T07:37:30.543Z,80.41
2022-10-05T07:40:07.126Z,80.42
2022-10-05T07:42:52.678Z,80.30
2022-10-05T07:45:32.214Z,80.38
2022-10-05T07:48:15.068Z,80.51
2022-10-05T07:50:53.475Z,80.48
2022-10-05T07:53:25.630Z,80.34
2022-10-05T07:55:55.652Z,80.23
2022-10-05T07:58:28.891Z,80.20
2022-10-05T08:01:13.957Z,79.85
2022-10-05T08:03:43.263Z,79.88
2022-10-05T08:06:16.445Z,79.80
2022-10-05T08:08:57.295Z,79.67
2022-10-05T08:11:45.326Z,79.82
2022-10-05T08:14:20.314Z,79.44
2022-10-05T08:16:49.361Z,79.22
2022-10-05T08:19:41.939Z,79.40
2022-10-05T08:22:12.558Z,79.24
2022-10-05T08:24:57.306Z,79.03
2022-10-05T08:27:33.072Z,79.10
2022-10-05T08:30:04.412Z,78.85
2022-10-05T08:32:38.822Z,78.58
2022-10-05T08:35:24.213Z,78.71
2022-10-05T08:37:52.115Z,78.59
2022-10-05T08:40:18.384Z,78.58
2022-10-05T08:43:12.477Z,78.70
2022-10-05T08:45:38.739Z,78.78
2022-10-05T08:48:21.225Z,78.06
2022-10-05T08:50:53.668Z,78.33
2022-10-05T08:53:29.088Z,78.18
2022-10-05T08:55:55.378Z,77.99
2022-10-05T08:58:51.769Z,77.80
2022-10-05T09:01:21.253Z,77.79
2022-10-05T09:03:56.618Z,76.68
2022-10-05T09:06:25.848Z,77.29
2022-10-05T09:09:17.103Z,77.02
2022-10-05T09:12:11.386Z,76.60
2022-10-05T09:15:24.253Z,75.99
2022-10-05T09:18:25.988Z,75.98
2022-10-05T09:21:02.520Z,75.77
2022-10-05T09:23:46.362Z,75.17
2022-10-05T09:26:40.337Z,75.04
2022-10-05T09:29:55.362Z,74.57
2022-10-05T09:32:59.634Z,73.89
2022-10-05T09:35:25.917Z,73.85
2022-10-05T09:38:23.871Z,73.82
2022-10-05T09:41:32.191Z,73.00
2022-10-05T09:44:41.682Z,73.36
2022-10-05T09:47:20.071Z,73.18
2022-10-05T09:49:52.529Z,72.84
2022-10-05T09:52:36.905Z,72.93
2022-10-05T09:55:08.871Z,72.69
2022-10-05T09:57:53.585Z,72.85
2022-10-05T10:00:50.075Z,72.63
2022-10-05T10:03:46.409Z,72.49
2022-10-05T10:06:30.714Z,72.20
2022-10-05T10:09:13.015Z,71.84
2022-10-05T10:12:03.515Z,71.80
2022-10-05T10:14:41.878Z,72.06
2022-10-05T10:17:17.270Z,72.05
2022-10-05T10:20:01.326Z,72.13
2022-10-05T10:22:52.562Z,71.83
2022-10-05T10:26:00.688Z,71.98
2022-10-05T10:28:30.168Z,72.09
2022-10-05T10:31:17.714Z,71.83
2022-10-05T10:34:08.751Z,71.74
2022-10-05T10:36:51.766Z,72.01
2022-10-05T10:39:27.201Z,71.97
2022-10-05T10:42:26.102Z,71.52
2022-10-05T10:45:04.732Z,71.71
2022-10-05T10:47:34.049Z,72.35
2022-10-05T10:50:28.344Z,72.14
2022-10-05T10:52:57.425Z,72.48
2022-10-05T10:55:53.632Z,72.52
2022-10-05T10:58:42.210Z,72.67
2022-10-05T11:01:27.419Z,72.70
2022-10-05T11:04:21.730Z,72.48
2022-10-05T11:07:07.140Z,72.33
2022-10-05T11:10:10.981Z,72.80
2022-10-05T11:13:02.730Z,72.84
2022-10-05T11:15:34.875Z,72.81
2022-10-05T11:18:39.376Z,72.63
2022-10-05T11:21:20.774Z,72.54
2022-10-05T11:23:59.924Z,72.13
2022-10-05T11:26:57.884Z,72.28
2022-10-05T11:29:55.217Z,72.09
2022-10-05T11:32:39.935Z,72.06
2022-10-05T11:35:10.742Z,71.71
2022-10-05T11:38:01.965Z,72.07
2022-10-05T11:40:44.824Z,72.18
2022-10-05T11:43:38.570Z,71.76
2022-10-05T11:46:13.989Z,71.52
2022-10-05T11:49:07.018Z,71.68
2022-10-05T11:51:40.589Z,71.68
2022-10-05T11:54:09.822Z,71.01
2022-10-05T11:56:42.186Z,71.11
2022-10-05T11:59:47.030Z,71.52
2022-10-05T12:02:39.959Z,70.89
2022-10-05T12:05:12.785Z,69.29
2022-10-05T12:07:57.089Z,69.43
2022-10-05T12:10:52.187Z,69.36
2022-10-05T12:13:27.561Z,69.09
2022-10-05T12:16:26.833Z,68.82
2022-10-05T12:19:10.192Z,68.20
2022-10-05T12:21:53.875Z,68.77
2022-10-05T12:24:35.281Z,68.47
2022-10-05T12:27:08.726Z,68.35
2022-10-05T12:29:41.720Z,67.74
2022-10-05T12:32:17.025Z,66.97
2022-10-05T12:35:12.540Z,67.63
2022-10-05T12:37:42.091Z,67.05
2022-10-05T12:40:14.493Z,66.36
2022-10-05T12:42:50.291Z,65.75
2022-10-05T12:45:26.503Z,65.75
2022-10-05T12:48:11.249Z,65.33
2022-10-05T12:50:54.935Z,65.29
2022-10-05T12:53:52.398Z,65.29
2022-10-05T12:56:33.933Z,65.75
2022-10-05T12:59:25.643Z,65.48
2022-10-05T13:02:02.991Z,65.22
2022-10-05T13:04:38.569Z,65.73
2022-10-05T13:07:13.789Z,65.99
2022-10-05T13:09:53.254Z,66.50
2022-10-05T13:12:35.311Z,67.06
2022-10-05T13:15:19.084Z,67.21
2022-10-05T13:17:57.542Z,67.01
2022-10-05T13:20:57.262Z,67.11
2022-10-05T13:23:26.604Z,67.32
2022-10-05T13:26:01.750Z,67.69
2022-10-05T13:28:39.221Z,67.95
2022-10-05T13:31:35.572Z,67.98
2022-10-05T13:34:33.726Z,68.02
2022-10-05T13:37:18.012Z,68.22
2022-10-05T13:40:19.101Z,68.85
2022-10-05T13:42:54.503Z,67.95
2022-10-05T13:45:26.102Z,67.58
2022-10-05T13:48:49.708Z,67.63
2022-10-05T13:51:23.612Z,66.78
2022-10-05T13:54:04.711Z,66.44
2022-10-05T13:56:39.494Z,66.51
2022-10-05T13:59:27.715Z,65.40
2022-10-05T14:02:02.069Z,65.32
2022-10-05T14:04:50.903Z,64.87
2022-10-05T14:07:34.796Z,63.62
2022-10-05T14:10:04.611Z,63.07
2022-10-05T14:12:40.652Z,63.48
2022-10-05T14:15:22.376Z,62.99
2022-10-05T14:17:51.612Z,62.16
2022-10-05T14:20:22.921Z,61.14
2022-10-05T14:22:54.421Z,61.26
2022-10-05T14:25:21.250Z,61.40
2022-10-05T14:28:23.260Z,61.71
2022-10-05T14:30:59.266Z,61.60
2022-10-05T14:33:29.182Z,60.46
2022-10-05T14:35:57.924Z,60.95
2022-10-05T14:38:44.945Z,61.70
2022-10-05T14:41:11.268Z,62.60
2022-10-05T14:43:37.925Z,62.21
2022-10-05T14:46:16.626Z,62.70
2022-10-05T14:48:45.453Z,63.04
2022-10-05T14:51:28.307Z,63.30
2022-10-05T14:53:58.787Z,63.70
2022-10-05T14:56:43.394Z,64.25
2022-10-05T14:59:10.247Z,64.33
2022-10-05T15:01:48.890Z,64.28
2022-10-05T15:04:37.847Z,64.62
2022-10-05T15:07:25.657Z,64.92
2022-10-05T15:09:57.770Z,64.60
2022-10-05T15:12:38.209Z,63.87
2022-10-05T15:15:25.335Z,64.21
2022-10-05T15:18:00.641Z,64.39
2022-10-05T15:20:46.358Z,64.17
2022-10-05T15:23:31.648Z,65.03
2022-10-05T15:26:15.189Z,65.29
2022-10-05T15:28:57.423Z,65.55
2022-10-05T15:31:39.263Z,65.55
2022-10-05T15:34:18.971Z,65.93
2022-10-05T15:36:52.230Z,65.48
2022-10-05T15:39:47.994Z,66.06
2022-10-05T15:42:19.537Z,66.64
2022-10-05T15:45:06.132Z,66.77
2022-10-05T15:47:50.896Z,66.75
2022-10-05T15:50:26.574Z,66.89
2022-10-05T15:53:16.895Z,67.25
2022-10-05T15:55:54.872Z,67.02
2022-10-05T15:58:46.533Z,67.49
2022-10-05T16:01:18.637Z,67.58
2022-10-05T16:03:51.007Z,67.42
2022-10-05T16:06:51.181Z,67.59
2022-10-05T16:09:52.493Z,67.60
2022-10-05T16:12:39.104Z,66.88
2022-10-05T16:15:38.225Z,66.82
2022-10-05T16:18:18.660Z,66.29
2022-10-05T16:21:29.266Z,66.53
2022-10-05T16:24:51.527Z,66.92
2022-10-05T16:27:28.855Z,66.93
2022-10-05T16:30:08.569Z,67.04
2022-10-05T16:32:46.209Z,67.06
2022-10-05T16:35:19.851Z,67.18
2022-10-05T16:37:52.777Z,67.48
2022-10-05T16:41:02.279Z,67.69
2022-10-05T16:43:49.185Z,67.90
2022-10-05T16:46:30.793Z,68.09
2022-10-05T16:49:42.474Z,68.56
2022-10-05T16:52:15.823Z,68.78
2022-10-05T16:54:52.198Z,69.01
2022-10-05T16:57:22.553Z,68.98
2022-10-05T17:00:13.461Z,69.40
2022-10-05T17:02:59.370Z,69.65
2022-10-05T17:05:55.709Z,69.98
2022-10-05T17:08:41.162Z,70.07
2022-10-05T17:11:32.409Z,70.24
2022-10-05T17:14:17.582Z,70.25
2022-10-05T17:16:46.901Z,70.33
2022-10-05T17:19:41.933Z,70.50
2022-10-05T17:22:19.396Z,70.56
2022-10-05T17:25:00.911Z,70.84
2022-10-05T17:27:52.413Z,70.95
2022-10-05T17:30:58.587Z,71.01
2022-10-05T17:33:46.996Z,71.27
2022-10-05T17:36:17.893Z,71.32
2022-10-05T17:39:08.807Z,71.53
2022-10-05T17:41:37.022Z,71.73
2022-10-05T17:44:16.224Z,71.83
2022-10-05T17:46:48.234Z,72.09
2022-10-05T17:49:26.890Z,72.01
2022-10-05T17:52:11.806Z,72.23
2022-10-05T17:55:02.713Z,72.30
2022-10-05T17:57:30.106Z,72.53
2022-10-05T18:00:01.910Z,72.46
2022-10-05T18:02:40.738Z,72.48
2022-10-05T18:05:14.437Z,72.45
2022-10-05T18:07:48.620Z,72.48
2022-10-05T18:10:29.025Z,72.84
2022-10-05T18:13:01.352Z,72.68
2022-10-05T18:15:27.640Z,72.76
2022-10-05T18:18:00.833Z,72.98
2022-10-05T18:20:34.613Z,73.15
2022-10-05T18:23:00.919Z,73.33
2022-10-05T18:25:31.101Z,73.14
2022-10-05T18:28:21.859Z,72.97
2022-10-05T18:31:26.186Z,73.21
2022-10-05T18:34:06.489Z,73.23
2022-10-05T18:37:00.593Z,73.20
2022-10-05T18:39:53.174Z,73.51
2022-10-05T18:42:36.758Z,73.55
2022-10-05T18:45:24.285Z,73.58
2022-10-05T18:48:15.901Z,73.85
2022-10-05T18:50:57.476Z,74.14
2022-10-05T18:53:41.079Z,73.79
2022-10-05T18:56:34.253Z,74.14
2022-10-05T18:59:08.667Z,73.89
2022-10-05T19:02:23.993Z,74.12
2022-10-05T19:05:45.787Z,74.22
2022-10-05T19:08:43.677Z,74.25
2022-10-05T19:11:29.863Z,74.38
2022-10-05T19:14:19.531Z,74.49
2022-10-05T19:17:04.614Z,74.75
2022-10-05T19:19:39.926Z,75.31
2022-10-05T19:22:16.707Z,75.75
2022-10-05T19:24:57.999Z,75.90
2022-10-05T19:27:38.796Z,76.28
2022-10-05T19:30:21.281Z,76.22
2022-10-05T19:33:18.310Z,76.22
2022-10-05T19:36:00.801Z,76.67
2022-10-05T19:38:44.922Z,76.91
2022-10-05T19:41:19.311Z,76.92
2022-10-05T19:43:58.106Z,76.93
2022-10-05T19:46:42.102Z,77.42
2022-10-05T19:49:10.466Z,79.27
2022-10-05T19:51:49.659Z,82.62
2022-10-05T19:54:29.752Z,88.01
2022-10-05T19:56:57.754Z,90.48
2022-10-05T19:59:31.641Z,92.23
2022-10-05T20:01:59.477Z,92.97
2022-10-05T20:04:41.922Z,93.70
2022-10-05T20:07:15.590Z,94.18
2022-10-05T20:09:52.291Z,94.92
2022-10-05T20:12:22.425Z,95.11
2022-10-05T20:15:24.658Z,95.34
2022-10-05T20:18:09.466Z,95.76
2022-10-05T20:20:47.029Z,96.05
2022-10-05T20:23:27.952Z,96.32
2022-10-05T20:26:12.954Z,96.72
2022-10-05T20:28:39.833Z,96.82
2022-10-05T20:31:07.951Z,97.01
2022-10-05T20:33:34.455Z,97.28
2022-10-05T20:36:03.476Z,97.62
2022-10-05T20:38:31.162Z,97.70
2022-10-05T20:40:57.822Z,98.00
2022-10-05T20:43:24.242Z,98.11
2022-10-05T20:45:52.184Z,98.16
2022-10-05T20:48:19.471Z,98.32
2022-10-05T20:50:47.274Z,98.33
2022-10-05T20:53:13.723Z,98.49
2022-10-05T20:55:40.080Z,98.62
2022-10-05T20:58:08.833Z,98.75
2022-10-05T21:00:53.806Z,98.61
2022-10-05T21:03:20.200Z,98.83
2022-10-05T21:05:46.922Z,98.80
2022-10-05T21:08:13.971Z,99.03
2022-10-05T21:10:40.327Z,99.10
2022-10-05T21:13:06.721Z,99.11
2022-10-05T21:15:33.073Z,99.14
2022-10-05T21:18:00.723Z,99.21
2022-10-05T21:20:27.287Z,99.56
2022-10-05T21:22:53.630Z,99.13
2022-10-05T21:25:19.985Z,99.16
2022-10-05T21:27:48.565Z,99.05
2022-10-05T21:30:15.399Z,99.05
2022-10-05T21:32:44.413Z,99.05
2022-10-05T21:35:11.349Z,98.93
2022-10-05T21:37:37.933Z,98.81
2022-10-05T21:40:04.685Z,98.65
2022-10-05T21:42:31.229Z,98.57
2022-10-05T21:44:57.607Z,98.75
2022-10-05T21:47:24.071Z,98.41
2022-10-05T21:49:50.429Z,98.48
2022-10-05T21:52:16.845Z,98.55
2022-10-05T21:54:43.241Z,98.38
2022-10-05T21:57:14.622Z,98.56
2022-10-05T21:59:41.177Z,98.49
2022-10-05T22:02:07.522Z,98.38
2022-10-05T22:04:33.854Z,98.58
2022-10-05T22:07:00.223Z,98.52
2022-10-05T22:09:26.945Z,98.50
2022-10-05T22:11:53.377Z,98.41
2022-10-05T22:14:19.745Z,98.52
2022-10-05T22:16:46.601Z,98.56
2022-10-05T22:19:18.465Z,98.72
2022-10-05T22:21:44.867Z,98.78
2022-10-05T22:24:11.632Z,98.69
2022-10-05T22:26:39.718Z,98.73
2022-10-05T22:29:07.276Z,98.68
2022-10-05T22:31:34.030Z,98.99
2022-10-05T22:34:00.466Z,99.08
2022-10-05T22:36:27.037Z,98.96
2022-10-05T22:38:54.345Z,99.24
2022-10-05T22:41:20.844Z,99.17
2022-10-05T22:43:50.010Z,99.22
2022-10-05T22:46:17.141Z,99.42
2022-10-05T22:48:43.685Z,99.21
2022-10-05T22:51:10.269Z,99.48
2022-10-05T22:53:36.689Z,99.33
2022-10-05T22:56:05.191Z,99.89
2022-10-05T22:58:31.881Z,99.47
2022-10-05T23:01:05.799Z,99.56
2022-10-05T23:03:33.118Z,99.75
2022-10-05T23:06:20.474Z,99.76
2022-10-05T23:08:47.331Z,99.49
2022-10-05T23:11:21.889Z,99.71
2022-10-05T23:13:48.547Z,99.50
2022-10-05T23:16:17.375Z,99.44
2022-10-05T23:18:45.001Z,99.47
2022-10-05T23:21:11.470Z,99.45
2022-10-05T23:23:40.562Z,99.45
2022-10-05T23:26:08.838Z,99.61
2022-10-05T23:28:35.349Z,99.63
2022-10-05T23:31:06.815Z,99.85
2022-10-05T23:33:34.258Z,99.53
2022-10-05T23:36:11.891Z,99.56
2022-10-05T23:38:38.442Z,99.61
2022-10-05T23:41:05.869Z,99.55
2022-10-05T23:43:35.651Z,99.41
2022-10-05T23:46:03.783Z,99.46
2022-10-05T23:48:31.382Z,99.37
2022-10-05T23:50:58.730Z,99.42
2022-10-05T23:53:25.475Z,99.20
2022-10-05T23:55:55.459Z,99.29
2022-10-05T23:58:22.665Z,99.20
